createdAt,value
2023-05-17T00:01:41.447Z,68.22
2023-05-17T00:04:45.164Z,68.35
2023-05-17T00:07:47.440Z,68.48
2023-05-17T00:10:49.321Z,69.02
2023-05-17T00:13:51.024Z,69.38
2023-05-17T00:16:52.928Z,69.69
2023-05-17T00:19:54.793Z,69.71
2023-05-17T00:22:56.628Z,70.00
2023-05-17T00:25:58.366Z,70.23
2023-05-17T00:29:00.390Z,70.55
2023-05-17T00:32:02.239Z,70.03
2023-05-17T00:35:04.623Z,69.82
2023-05-17T00:38:06.386Z,69.50
2023-05-17T00:41:08.227Z,69.48
2023-05-17T00:44:10.121Z,69.91
2023-05-17T00:47:12.185Z,70.32
2023-05-17T00:50:14.331Z,70.74
2023-05-17T00:53:16.540Z,71.56
2023-05-17T00:56:18.395Z,72.40
2023-05-17T00:59:21.539Z,72.93
2023-05-17T01:02:23.526Z,73.21
2023-05-17T01:05:28.875Z,73.57
2023-05-17T01:08:31.358Z,73.89
2023-05-17T01:11:42.235Z,74.02
2023-05-17T01:15:05.340Z,74.31
2023-05-17T01:18:18.165Z,73.81
2023-05-17T01:21:37.391Z,73.87
2023-05-17T01:25:17.998Z,73.72
2023-05-17T01:28:23.204Z,73.49
2023-05-17T01:31:26.083Z,73.48
2023-05-17T01:34:29.617Z,73.31
2023-05-17T01:37:31.510Z,73.09
2023-05-17T01:40:39.672Z,72.65
2023-05-17T01:43:49.986Z,72.47
2023-05-17T01:46:58.760Z,72.58
2023-05-17T01:50:01.551Z,72.68
2023-05-17T01:53:10.571Z,72.83
2023-05-17T01:56:21.108Z,72.76
2023-05-17T01:59:25.423Z,73.48
2023-05-17T02:02:27.335Z,73.46
2023-05-17T02:05:29.504Z,73.78
2023-05-17T02:08:31.452Z,73.90
2023-05-17T02:11:33.268Z,73.73
2023-05-17T02:14:35.364Z,74.08
2023-05-17T02:17:37.851Z,74.14
2023-05-17T02:20:39.772Z,73.96
2023-05-17T02:23:42.627Z,74.14
2023-05-17T02:26:45.885Z,74.22
2023-05-17T02:29:47.638Z,74.32
2023-05-17T02:32:49.564Z,74.48
2023-05-17T02:35:51.529Z,74.69
2023-05-17T02:38:54.570Z,74.84
2023-05-17T02:41:56.265Z,74.65
2023-05-17T02:44:58.956Z,75.01
2023-05-17T02:48:00.787Z,75.19
2023-05-17T02:51:02.531Z,75.40
2023-05-17T02:54:04.467Z,75.49
2023-05-17T02:57:06.470Z,75.66
2023-05-17T03:00:09.444Z,75.49
2023-05-17T03:03:12.109Z,75.82
2023-05-17T03:06:14.180Z,75.80
2023-05-17T03:09:16.178Z,75.72
2023-05-17T03:12:19.431Z,75.71
2023-05-17T03:15:26.807Z,75.38
2023-05-17T03:18:28.801Z,75.46
2023-05-17T03:21:30.742Z,75.05
2023-05-17T03:24:32.666Z,75.50
2023-05-17T03:27:35.505Z,75.49
2023-05-17T03:30:37.946Z,75.30
2023-05-17T03:33:39.954Z,75.60
2023-05-17T03:36:41.746Z,75.75
2023-05-17T03:39:43.605Z,75.72
2023-05-17T03:42:45.951Z,75.89
2023-05-17T03:45:48.058Z,76.25
2023-05-17T03:48:52.389Z,76.48
2023-05-17T03:51:54.296Z,76.74
2023-05-17T03:54:56.107Z,76.95
2023-05-17T03:57:57.989Z,76.95
2023-05-17T04:01:00.828Z,77.27
2023-05-17T04:04:04.600Z,77.61
2023-05-17T04:07:06.735Z,77.74
2023-05-17T04:10:10.279Z,77.57
2023-05-17T04:13:12.017Z,77.22
2023-05-17T04:16:14.064Z,77.35
2023-05-17T04:19:17.200Z,77.56
2023-05-17T04:22:21.156Z,77.51
2023-05-17T04:25:24.670Z,77.66
2023-05-17T04:28:27.530Z,77.56
2023-05-17T04:31:32.042Z,78.01
2023-05-17T04:34:34.898Z,78.04
2023-05-17T04:37:40.351Z,78.00
2023-05-17T04:40:52.282Z,78.01
2023-05-17T04:43:54.387Z,78.20
2023-05-17T04:47:03.971Z,78.44
2023-05-17T04:50:06.075Z,78.10
2023-05-17T04:53:10.214Z,78.13
2023-05-17T04:56:13.091Z,78.10
2023-05-17T04:59:15.894Z,77.87
2023-05-17T05:02:19.109Z,77.83
2023-05-17T05:05:21.574Z,77.76
2023-05-17T05:08:23.558Z,77.71
2023-05-17T05:11:26.833Z,77.27
2023-05-17T05:14:28.684Z,76.96
2023-05-17T05:17:31.429Z,76.54
2023-05-17T05:20:34.328Z,76.20
2023-05-17T05:23:38.664Z,76.00
2023-05-17T05:26:41.563Z,76.13
2023-05-17T05:29:44.303Z,76.47
2023-05-17T05:32:46.580Z,76.66
2023-05-17T05:35:48.644Z,76.50
2023-05-17T05:38:53.895Z,75.86
2023-05-17T05:41:56.103Z,75.62
2023-05-17T05:44:58.684Z,75.29
2023-05-17T05:48:01.278Z,74.90
2023-05-17T05:51:03.394Z,73.56
2023-05-17T05:54:05.396Z,73.02
2023-05-17T05:57:07.211Z,72.67
2023-05-17T06:00:12.033Z,72.16
2023-05-17T06:03:16.559Z,71.76
2023-05-17T06:06:19.635Z,71.72
2023-05-17T06:09:22.290Z,71.35
2023-05-17T06:12:24.059Z,71.44
2023-05-17T06:15:27.479Z,70.99
2023-05-17T06:18:29.312Z,70.99
2023-05-17T06:21:31.407Z,70.97
2023-05-17T06:24:33.435Z,71.05
2023-05-17T06:27:35.349Z,71.20
2023-05-17T06:30:37.263Z,71.26
2023-05-17T06:33:39.066Z,71.14
2023-05-17T06:36:41.124Z,71.50
2023-05-17T06:39:47.957Z,71.84
2023-05-17T06:42:57.384Z,71.93
2023-05-17T06:45:59.170Z,71.99
2023-05-17T06:49:01.077Z,71.98
2023-05-17T06:52:05.716Z,72.08
2023-05-17T06:55:07.889Z,72.72
2023-05-17T06:58:09.714Z,72.17
2023-05-17T07:01:11.661Z,72.61
2023-05-17T07:04:13.544Z,72.82
2023-05-17T07:07:15.640Z,73.12
2023-05-17T07:10:17.377Z,73.22
2023-05-17T07:13:19.817Z,73.44
2023-05-17T07:16:21.698Z,73.59
2023-05-17T07:19:23.781Z,73.80
2023-05-17T07:22:25.803Z,73.87
2023-05-17T07:25:27.912Z,74.00
2023-05-17T07:28:31.228Z,73.93
2023-05-17T07:31:33.060Z,74.63
2023-05-17T07:34:34.992Z,75.06
2023-05-17T07:37:36.818Z,75.49
2023-05-17T07:40:38.632Z,75.69
2023-05-17T07:43:40.590Z,75.88
2023-05-17T07:46:42.546Z,76.12
2023-05-17T07:49:44.427Z,76.00
2023-05-17T07:52:46.396Z,75.86
2023-05-17T07:55:48.122Z,75.24
2023-05-17T07:58:49.866Z,75.37
2023-05-17T08:01:52.561Z,75.21
2023-05-17T08:04:54.375Z,75.19
2023-05-17T08:08:00.275Z,75.63
2023-05-17T08:11:02.720Z,75.47
2023-05-17T08:14:05.244Z,75.81
2023-05-17T08:17:07.114Z,75.79
2023-05-17T08:20:09.876Z,75.64
2023-05-17T08:23:11.657Z,75.34
2023-05-17T08:26:13.484Z,75.17
2023-05-17T08:29:15.223Z,75.13
2023-05-17T08:32:17.056Z,74.39
2023-05-17T08:35:18.876Z,73.14
2023-05-17T08:38:21.596Z,72.05
2023-05-17T08:41:23.451Z,71.54
2023-05-17T08:44:27.232Z,71.43
2023-05-17T08:47:34.160Z,70.83
2023-05-17T08:50:38.271Z,70.65
2023-05-17T08:53:40.213Z,70.00
2023-05-17T08:56:44.050Z,69.24
2023-05-17T08:59:47.522Z,68.79
2023-05-17T09:02:49.930Z,68.69
2023-05-17T09:05:55.533Z,68.05
2023-05-17T09:08:58.673Z,67.36
2023-05-17T09:12:01.672Z,67.13
2023-05-17T09:15:18.054Z,67.28
2023-05-17T09:18:20.020Z,67.08
2023-05-17T09:21:24.067Z,67.01
2023-05-17T09:24:30.357Z,65.97
2023-05-17T09:27:32.536Z,65.87
2023-05-17T09:30:38.149Z,66.04
2023-05-17T09:33:47.916Z,66.23
2023-05-17T09:36:51.449Z,65.69
2023-05-17T09:39:55.083Z,65.40
2023-05-17T09:42:58.331Z,65.39
2023-05-17T09:46:00.239Z,65.31
2023-05-17T09:49:05.051Z,64.74
2023-05-17T09:52:08.360Z,63.50
2023-05-17T09:55:11.845Z,63.02
2023-05-17T09:58:14.184Z,61.68
2023-05-17T10:01:17.675Z,61.27
2023-05-17T10:04:23.292Z,60.22
2023-05-17T10:07:26.614Z,59.92
2023-05-17T10:10:30.112Z,59.21
2023-05-17T10:13:40.863Z,58.74
2023-05-17T10:16:43.309Z,58.59
2023-05-17T10:19:46.904Z,58.79
2023-05-17T10:22:50.243Z,58.74
2023-05-17T10:25:52.465Z,58.79
2023-05-17T10:29:00.743Z,58.41
2023-05-17T10:32:09.527Z,58.06
2023-05-17T10:35:15.249Z,58.64
2023-05-17T10:38:19.161Z,58.18
2023-05-17T10:41:24.500Z,58.42
2023-05-17T10:44:26.653Z,57.56
2023-05-17T10:47:35.205Z,57.43
2023-05-17T10:50:47.398Z,57.39
2023-05-17T10:54:10.386Z,57.18
2023-05-17T10:57:36.102Z,57.04
2023-05-17T11:00:56.296Z,56.07
2023-05-17T11:03:58.161Z,56.36
2023-05-17T11:07:27.481Z,56.47
2023-05-17T11:10:29.962Z,56.64
2023-05-17T11:13:31.909Z,55.95
2023-05-17T11:16:38.315Z,55.92
2023-05-17T11:19:49.514Z,55.28
2023-05-17T11:23:00.849Z,56.19
2023-05-17T11:26:22.794Z,56.76
2023-05-17T11:29:29.965Z,56.98
2023-05-17T11:32:32.997Z,57.34
2023-05-17T11:35:39.056Z,57.56
2023-05-17T11:38:40.834Z,58.14
2023-05-17T11:41:53.929Z,58.25
2023-05-17T11:45:01.135Z,58.29
2023-05-17T11:48:04.478Z,58.32
2023-05-17T11:51:06.499Z,58.28
2023-05-17T11:54:09.604Z,58.56
2023-05-17T11:57:13.285Z,58.88
2023-05-17T12:00:16.775Z,59.06
2023-05-17T12:03:26.980Z,59.19
2023-05-17T12:06:29.336Z,59.30
2023-05-17T12:09:31.608Z,59.57
2023-05-17T12:12:35.975Z,59.45
2023-05-17T12:15:38.413Z,59.15
2023-05-17T12:18:45.441Z,59.33
2023-05-17T12:21:47.882Z,59.42
2023-05-17T12:24:49.768Z,59.46
2023-05-17T12:27:52.374Z,59.43
2023-05-17T12:30:58.012Z,59.42
2023-05-17T12:34:02.510Z,59.09
2023-05-17T12:37:10.237Z,59.60
2023-05-17T12:40:12.462Z,59.73
2023-05-17T12:43:14.432Z,60.38
2023-05-17T12:46:18.931Z,61.06
2023-05-17T12:49:23.810Z,61.04
2023-05-17T12:52:25.685Z,61.83
2023-05-17T12:55:36.509Z,61.98
2023-05-17T12:58:38.197Z,61.78
2023-05-17T13:01:43.956Z,61.99
2023-05-17T13:04:46.644Z,62.08
2023-05-17T13:07:48.834Z,62.04
2023-05-17T13:10:50.653Z,61.47
2023-05-17T13:13:52.561Z,60.99
2023-05-17T13:16:54.529Z,61.06
2023-05-17T13:19:57.975Z,60.77
2023-05-17T13:23:00.151Z,59.99
2023-05-17T13:26:01.883Z,60.16
2023-05-17T13:29:03.722Z,59.49
2023-05-17T13:32:06.750Z,59.53
2023-05-17T13:35:08.629Z,59.28
2023-05-17T13:38:10.533Z,59.12
2023-05-17T13:41:12.426Z,59.51
2023-05-17T13:44:14.537Z,59.51
2023-05-17T13:47:16.682Z,59.38
2023-05-17T13:50:19.620Z,59.46
2023-05-17T13:53:21.838Z,59.66
2023-05-17T13:56:23.583Z,59.73
2023-05-17T13:59:25.398Z,59.93
2023-05-17T14:02:27.158Z,60.13
2023-05-17T14:05:29.026Z,60.04
2023-05-17T14:08:30.923Z,59.51
2023-05-17T14:11:32.909Z,59.81
2023-05-17T14:14:34.763Z,59.33
2023-05-17T14:17:36.700Z,59.14
2023-05-17T14:20:38.940Z,59.58
2023-05-17T14:23:40.791Z,59.70
2023-05-17T14:26:42.573Z,60.15
2023-05-17T14:29:44.275Z,59.94
2023-05-17T14:32:46.222Z,59.82
2023-05-17T14:35:47.995Z,59.48
2023-05-17T14:38:49.938Z,59.21
2023-05-17T14:41:51.847Z,59.09
2023-05-17T14:44:53.831Z,59.12
2023-05-17T14:47:55.939Z,59.01
2023-05-17T14:50:57.751Z,59.45
2023-05-17T14:53:59.510Z,59.34
2023-05-17T14:57:01.833Z,59.30
2023-05-17T15:00:10.373Z,59.11
2023-05-17T15:03:12.216Z,59.08
2023-05-17T15:06:14.106Z,59.13
2023-05-17T15:09:18.248Z,59.57
2023-05-17T15:12:19.982Z,59.95
2023-05-17T15:15:22.278Z,60.29
2023-05-17T15:18:24.186Z,60.21
2023-05-17T15:21:26.134Z,60.00
2023-05-17T15:24:28.281Z,60.12
2023-05-17T15:27:30.078Z,60.06
2023-05-17T15:30:31.807Z,60.32
2023-05-17T15:33:33.633Z,60.50
2023-05-17T15:36:36.607Z,60.84
2023-05-17T15:39:38.393Z,61.97
2023-05-17T15:42:40.248Z,62.81
2023-05-17T15:45:41.951Z,64.24
2023-05-17T15:48:43.774Z,65.39
2023-05-17T15:51:45.652Z,66.38
2023-05-17T15:54:50.217Z,66.85
2023-05-17T15:57:52.008Z,67.61
2023-05-17T16:00:54.814Z,67.36
2023-05-17T16:03:56.675Z,67.26
2023-05-17T16:06:58.493Z,67.49
2023-05-17T16:10:00.227Z,67.91
2023-05-17T16:13:06.040Z,68.54
2023-05-17T16:16:07.857Z,68.93
2023-05-17T16:19:09.802Z,69.35
2023-05-17T16:22:11.717Z,69.59
2023-05-17T16:25:16.769Z,70.13
2023-05-17T16:28:21.600Z,69.97
2023-05-17T16:31:24.112Z,70.41
2023-05-17T16:34:27.394Z,70.10
2023-05-17T16:37:29.204Z,70.22
2023-05-17T16:40:31.427Z,70.39
2023-05-17T16:43:33.527Z,70.04
2023-05-17T16:46:36.710Z,70.12
2023-05-17T16:49:38.847Z,70.11
2023-05-17T16:52:40.658Z,70.20
2023-05-17T16:55:42.509Z,70.07
2023-05-17T16:58:44.284Z,69.94
2023-05-17T17:01:46.095Z,69.91
2023-05-17T17:04:47.926Z,70.24
2023-05-17T17:07:49.716Z,69.80
2023-05-17T17:10:51.504Z,70.16
2023-05-17T17:13:53.588Z,70.40
2023-05-17T17:16:55.646Z,70.47
2023-05-17T17:19:57.484Z,70.73
2023-05-17T17:22:59.261Z,70.92
2023-05-17T17:26:01.074Z,70.86
2023-05-17T17:29:04.133Z,71.27
2023-05-17T17:32:06.658Z,70.96
2023-05-17T17:35:09.249Z,70.82
2023-05-17T17:38:13.196Z,70.88
2023-05-17T17:41:14.980Z,71.02
2023-05-17T17:44:16.813Z,71.03
2023-05-17T17:47:18.632Z,71.38
2023-05-17T17:50:20.463Z,71.49
2023-05-17T17:53:23.256Z,71.67
2023-05-17T17:56:27.901Z,71.64
2023-05-17T17:59:29.697Z,72.11
2023-05-17T18:02:31.501Z,71.69
2023-05-17T18:05:33.365Z,71.87
2023-05-17T18:08:35.275Z,72.06
2023-05-17T18:11:37.766Z,72.30
2023-05-17T18:14:39.650Z,72.55
2023-05-17T18:17:41.588Z,72.55
2023-05-17T18:20:43.468Z,72.41
2023-05-17T18:23:45.219Z,72.55
2023-05-17T18:26:46.947Z,72.47
2023-05-17T18:29:48.722Z,72.53
2023-05-17T18:32:50.663Z,72.75
2023-05-17T18:35:52.370Z,72.92
2023-05-17T18:38:58.616Z,72.98
2023-05-17T18:42:00.910Z,72.97
2023-05-17T18:45:02.749Z,72.96
2023-05-17T18:48:04.664Z,72.93
2023-05-17T18:51:06.890Z,73.16
2023-05-17T18:54:09.010Z,73.03
2023-05-17T18:57:12.218Z,73.08
2023-05-17T19:00:14.591Z,73.20
2023-05-17T19:03:16.329Z,73.38
2023-05-17T19:06:19.758Z,73.45
2023-05-17T19:09:21.550Z,73.61
2023-05-17T19:12:23.387Z,73.84
2023-05-17T19:15:25.149Z,74.03
2023-05-17T19:18:27.008Z,74.16
2023-05-17T19:21:28.717Z,73.93
2023-05-17T19:24:30.430Z,73.99
2023-05-17T19:27:32.186Z,73.66
2023-05-17T19:30:34.205Z,73.62
2023-05-17T19:33:37.753Z,73.33
2023-05-17T19:36:40.844Z,73.34
2023-05-17T19:39:42.602Z,73.21
2023-05-17T19:42:44.581Z,72.96
2023-05-17T19:45:46.280Z,72.73
2023-05-17T19:48:48.160Z,72.77
2023-05-17T19:51:52.875Z,73.07
2023-05-17T19:54:54.613Z,72.97
2023-05-17T19:57:57.503Z,73.03
2023-05-17T20:00:59.386Z,72.73
2023-05-17T20:04:01.326Z,72.65
2023-05-17T20:07:03.216Z,72.56
2023-05-17T20:10:06.080Z,72.75
2023-05-17T20:13:07.847Z,73.06
2023-05-17T20:16:12.710Z,73.40
2023-05-17T20:19:14.917Z,73.27
2023-05-17T20:22:16.978Z,73.42
2023-05-17T20:25:18.832Z,73.37
2023-05-17T20:28:20.672Z,73.46
2023-05-17T20:31:22.480Z,73.57
2023-05-17T20:34:28.336Z,73.67
2023-05-17T20:37:30.062Z,73.68
2023-05-17T20:40:32.307Z,73.43
2023-05-17T20:43:35.121Z,73.23
2023-05-17T20:46:36.973Z,73.72
2023-05-17T20:49:38.732Z,73.76
2023-05-17T20:52:40.521Z,73.98
2023-05-17T20:55:44.396Z,74.29
2023-05-17T20:58:46.835Z,73.87
2023-05-17T21:01:48.678Z,73.98
2023-05-17T21:04:52.753Z,74.19
2023-05-17T21:07:56.420Z,73.95
2023-05-17T21:10:58.643Z,74.29
2023-05-17T21:14:00.841Z,74.66
2023-05-17T21:17:03.533Z,74.82
2023-05-17T21:20:05.918Z,74.88
2023-05-17T21:23:07.664Z,74.84
2023-05-17T21:26:09.529Z,75.13
2023-05-17T21:29:11.365Z,75.50
2023-05-17T21:32:13.246Z,75.38
2023-05-17T21:35:17.706Z,75.29
2023-05-17T21:38:19.642Z,75.41
2023-05-17T21:41:21.629Z,75.87
2023-05-17T21:44:23.549Z,75.88
2023-05-17T21:47:25.502Z,75.80
2023-05-17T21:50:27.325Z,76.10
2023-05-17T21:53:29.190Z,76.36
2023-05-17T21:56:30.942Z,76.31
2023-05-17T21:59:33.331Z,76.56
2023-05-17T22:02:37.081Z,76.62
2023-05-17T22:05:39.360Z,76.90
2023-05-17T22:08:42.415Z,77.19
2023-05-17T22:11:45.454Z,77.38
2023-05-17T22:14:47.271Z,77.69
2023-05-17T22:17:53.028Z,77.88
2023-05-17T22:20:55.134Z,77.57
2023-05-17T22:23:57.113Z,77.76
2023-05-17T22:26:58.858Z,77.59
2023-05-17T22:30:00.998Z,78.00
2023-05-17T22:33:03.201Z,77.59
2023-05-17T22:36:05.192Z,77.87
2023-05-17T22:39:06.911Z,78.11
2023-05-17T22:42:09.433Z,78.05
2023-05-17T22:45:15.157Z,78.37
2023-05-17T22:48:17.114Z,78.35
2023-05-17T22:51:19.797Z,78.46
2023-05-17T22:54:21.930Z,78.35
2023-05-17T22:57:23.659Z,78.30
2023-05-17T23:00:26.238Z,78.23
2023-05-17T23:03:28.184Z,78.38
2023-05-17T23:06:34.129Z,78.13
2023-05-17T23:09:38.199Z,78.09
2023-05-17T23:12:40.167Z,77.85
2023-05-17T23:15:46.754Z,77.80
2023-05-17T23:18:48.818Z,77.89
2023-05-17T23:21:50.662Z,78.10
2023-05-17T23:24:54.107Z,78.10
2023-05-17T23:27:58.264Z,78.09
2023-05-17T23:31:02.360Z,78.10
2023-05-17T23:34:04.224Z,78.16
2023-05-17T23:37:06.186Z,78.06
2023-05-17T23:40:11.540Z,78.19
2023-05-17T23:43:13.301Z,78.38
2023-05-17T23:46:19.669Z,78.31
2023-05-17T23:49:23.161Z,78.23
2023-05-17T23:52:25.296Z,78.31
2023-05-17T23:55:27.285Z,78.28
2023-05-17T23:58:29.153Z,78.34
